Terminal Aerodrome Forecast
Issued by NWS Louisville, KY

Current Version | Previous Version | Text Only | Print | Product List | Glossary On
Versions: 1 2 3 4 5 6 7 8 9 10 11 12 13 14 15 16 17 18 19 20
000
FTUS43 KLMK 041100 AAC
TAFBWG
TAF AMD
KBWG 041113Z 0411/0506 35006KT 4SM -RA BR SCT006 BKN025
      TEMPO 0411/0415 2SM -RA BR BKN005
     FM041500 35006KT 3SM -RA BR BKN006
     FM042300 36009KT 2SM -RAPL BR BKN008
     FM050000 36009KT 2SM -PL BR BKN010
     FM050200 36011KT 1SM -SN BR BKN008=

USA.gov is the U.S. government's official web portal to all federal, state and local government web resources and services.